Lil Susan S — WBD8211 — position and weather

sailwx.info

Track history (hours):
 
Tides and Currents Weather Stations Pressure Air Temp Water Temp Dewpoint Dewpoint Depression Visibility Wind Speed Wind Dir Waves Ship Positions

Lil Susan S

Owner: S & W MARINE INC, LOCKPORT, LA. More information available from US FCC via Universal Licensing System and Coast Guard Vessel Documentation Center.

Last reported at 2018-Feb-19 19:49 UTC. Time now 2018-Feb-20 05:21 UTC.
Position N 29°33' W 094°28'.

Length 25 m; draft 2.6 m.

Type: Towing. MMSI: 367011790.

Date/timePositionNaut miles runAvg speedWind from/ knotsBaromVisibWave heightAir tempDewpointWater temp
2018-Feb-19 19:49N 29°33' W 094°28'0 0.1
2018-Feb-19 19:29N 29°33' W 094°28'1 1.9
2018-Feb-19 18:50N 29°34' W 094°28'1 2.4
2018-Feb-19 18:29N 29°34' W 094°27'0 0.0
2018-Feb-19 18:00N 29°34' W 094°27'0 0.1
2018-Feb-19 17:14N 29°34' W 094°27'0 1.5
2018-Feb-19 16:54N 29°34' W 094°26'1 2.5
2018-Feb-19 16:27N 29°34' W 094°25'0 0.0
2018-Feb-19 15:53N 29°34' W 094°25'0 0.0
2018-Feb-19 15:29N 29°34' W 094°25'1 2.6
2018-Feb-19 15:00N 29°36' W 094°25'2 3.9
2018-Feb-19 14:30N 29°36' W 094°23'0 0.1
2018-Feb-19 14:00N 29°36' W 094°23'0 0.0
2018-Feb-19 13:28N 29°36' W 094°23'1 2.0
2018-Feb-19 13:00N 29°36' W 094°22'3 4.8
2018-Feb-19 12:27N 29°38' W 094°19'2 4.8
2018-Feb-19 12:00N 29°39' W 094°17'2 3.6
2018-Feb-19 11:30N 29°40' W 094°15'0 0.7
2018-Feb-19 11:00N 29°40' W 094°15'0 0.0
2018-Feb-19 10:30N 29°40' W 094°15'0 0.3
2018-Feb-19 10:00N 29°40' W 094°14'0 0.0
2018-Feb-19 09:30N 29°40' W 094°14'0 0.0
2018-Feb-19 09:00N 29°40' W 094°14'0 0.0
2018-Feb-19 08:30N 29°40' W 094°14'0 0.0
2018-Feb-19 08:00N 29°40' W 094°14'0 0.0
2018-Feb-19 07:30N 29°40' W 094°14'0 0.0
2018-Feb-19 07:00N 29°40' W 094°14'0 0.0
2018-Feb-19 06:30N 29°40' W 094°14'0 0.0
2018-Feb-19 05:58N 29°40' W 094°14'0 0.0
2018-Feb-19 05:30N 29°40' W 094°14'0 0.0
2018-Feb-19 05:00N 29°40' W 094°14'0 0.0
2018-Feb-19 04:29N 29°40' W 094°14'0 0.0
2018-Feb-19 04:00N 29°40' W 094°14'0 0.0
2018-Feb-19 03:30N 29°40' W 094°14'0 0.0
2018-Feb-19 03:00N 29°40' W 094°14'0 0.0
2018-Feb-19 02:30N 29°40' W 094°14'0 0.0
2018-Feb-19 02:00N 29°40' W 094°14'0 0.0
2018-Feb-19 01:30N 29°40' W 094°14'0 0.0
2018-Feb-19 01:00N 29°40' W 094°14'0 0.0
2018-Feb-19 00:30N 29°40' W 094°14'0 0.0
2018-Feb-19 00:00N 29°40' W 094°14'0 0.3
2018-Feb-18 23:30N 29°40' W 094°14'1 2.9
2018-Feb-18 23:00N 29°40' W 094°13'2 4.6
2018-Feb-18 22:30N 29°41' W 094°10'3 5.2
2018-Feb-18 22:00N 29°43' W 094°08'3 5.8
2018-Feb-18 21:30N 29°44' W 094°05'3 6.6
2018-Feb-18 21:00N 29°46' W 094°02'3 6.4
2018-Feb-18 20:30N 29°49' W 093°60'3 5.4
2018-Feb-18 20:00N 29°50' W 093°57'4 7.4
2018-Feb-18 19:30N 29°53' W 093°55'4 7.1
2018-Feb-18 19:00N 29°56' W 093°52'3 6.1
2018-Feb-18 18:30N 29°59' W 093°50'4 7.1
2018-Feb-18 18:00N 30°00' W 093°46'1 1.0
2018-Feb-18 17:29N 30°01' W 093°46'2 4.5
2018-Feb-18 17:00N 30°02' W 093°44'2 4.6
2018-Feb-18 16:30N 30°03' W 093°42'3 4.7
2018-Feb-18 15:57N 30°04' W 093°39'2 3.5
2018-Feb-18 15:30N 30°04' W 093°37'2 3.3
2018-Feb-18 14:59N 30°04' W 093°35'1 1.0
2018-Feb-18 14:23N 30°04' W 093°34'0 0.4
2018-Feb-18 13:59N 30°04' W 093°34'0 0.2
2018-Feb-18 13:30N 30°04' W 093°34'0 0.3
2018-Feb-18 13:00N 30°04' W 093°34'0 0.4
2018-Feb-18 12:30N 30°04' W 093°34'0 0.6
2018-Feb-18 12:00N 30°04' W 093°33'1 2.5
2018-Feb-18 11:30N 30°04' W 093°32'2 3.3
2018-Feb-18 11:00N 30°04' W 093°30'1 2.8
2018-Feb-18 10:30N 30°04' W 093°28'2 4.2
2018-Feb-18 10:00N 30°04' W 093°26'2 4.6
2018-Feb-18 09:30N 30°04' W 093°23'2 3.7
2018-Feb-18 09:00N 30°04' W 093°21'1 2.0
2018-Feb-18 08:30N 30°04' W 093°20'0 0.4
2018-Feb-18 08:00N 30°05' W 093°20'1 1.8
2018-Feb-18 07:30N 30°05' W 093°20'1 2.7
2018-Feb-18 07:00N 30°06' W 093°18'2 4.3
2018-Feb-18 06:30N 30°04' W 093°16'1 1.2
2018-Feb-18 06:00N 30°04' W 093°16'1 1.1
2018-Feb-18 05:30N 30°03' W 093°16'0 1.0
2018-Feb-18 05:00N 30°03' W 093°16'0 0.6
2018-Feb-18 04:30N 30°02' W 093°16'0 0.0
2018-Feb-18 04:00N 30°02' W 093°16'0 0.0
2018-Feb-18 03:30N 30°02' W 093°16'0 0.1
2018-Feb-18 03:00N 30°02' W 093°16'0 0.1
2018-Feb-18 02:30N 30°02' W 093°16'2 3.2
2018-Feb-18 02:00N 30°01' W 093°14'2 4.2
2018-Feb-18 01:30N 29°60' W 093°13'2 4.1
2018-Feb-18 01:00N 29°58' W 093°11'2 4.9
2018-Feb-18 00:30N 29°56' W 093°10'42 2.2
2018-Feb-17 05:27N 29°51' W 092°22'1 2.4
2018-Feb-17 04:53N 29°51' W 092°20'2 4.4
2018-Feb-17 04:30N 29°50' W 092°18'1 2.5
2018-Feb-17 04:00N 29°49' W 092°17'2 3.9
2018-Feb-17 03:30N 29°48' W 092°15'2 4.3
2018-Feb-17 03:00N 29°47' W 092°13'2 3.7
2018-Feb-17 02:30N 29°47' W 092°11'0 0.9
2018-Feb-17 02:00N 29°47' W 092°11'2 3.6
2018-Feb-17 01:28N 29°47' W 092°09'2 5.2
2018-Feb-17 01:00N 29°48' W 092°06'67 2.8
2018-Feb-16 01:07N 29°32' W 090°50'1 5.5
2018-Feb-16 01:00N 29°32' W 090°50'3 5.3
2018-Feb-16 00:30N 29°32' W 090°47'2 4.2
2018-Feb-16 00:00N 29°34' W 090°45'2 3.5
2018-Feb-15 23:30N 29°34' W 090°43'2 3.6
2018-Feb-15 23:00N 29°36' W 090°43'1 2.9
2018-Feb-15 22:30N 29°36' W 090°41'2 4.6
2018-Feb-15 22:00N 29°35' W 090°38'2 4.5
2018-Feb-15 21:29N 29°35' W 090°36'2 3.3
2018-Feb-15 21:00N 29°34' W 090°34'  
Track history (hours):
 
Tides and Currents Weather Stations Pressure Air Temp Water Temp Dewpoint Dewpoint Depression Visibility Wind Speed Wind Dir Waves Ship Positions

Lil Susan S

Owner: S & W MARINE INC, LOCKPORT, LA. More information available from US FCC via Universal Licensing System and Coast Guard Vessel Documentation Center.

Last reported at 2018-Feb-19 19:49 UTC. Time now 2018-Feb-20 05:21 UTC.
Position N 29°33' W 094°28'.

Length 25 m; draft 2.6 m.

Type: Towing. MMSI: 367011790.

Date/timePositionNaut miles runAvg speedWind from/ knotsBaromVisibWave heightAir tempDewpointWater temp
2018-Feb-19 19:49N 29°33' W 094°28'0 0.1
2018-Feb-19 19:29N 29°33' W 094°28'1 1.9
2018-Feb-19 18:50N 29°34' W 094°28'1 2.4
2018-Feb-19 18:29N 29°34' W 094°27'0 0.0
2018-Feb-19 18:00N 29°34' W 094°27'0 0.1
2018-Feb-19 17:14N 29°34' W 094°27'0 1.5
2018-Feb-19 16:54N 29°34' W 094°26'1 2.5
2018-Feb-19 16:27N 29°34' W 094°25'0 0.0
2018-Feb-19 15:53N 29°34' W 094°25'0 0.0
2018-Feb-19 15:29N 29°34' W 094°25'1 2.6
2018-Feb-19 15:00N 29°36' W 094°25'2 3.9
2018-Feb-19 14:30N 29°36' W 094°23'0 0.1
2018-Feb-19 14:00N 29°36' W 094°23'0 0.0
2018-Feb-19 13:28N 29°36' W 094°23'1 2.0
2018-Feb-19 13:00N 29°36' W 094°22'3 4.8
2018-Feb-19 12:27N 29°38' W 094°19'2 4.8
2018-Feb-19 12:00N 29°39' W 094°17'2 3.6
2018-Feb-19 11:30N 29°40' W 094°15'0 0.7
2018-Feb-19 11:00N 29°40' W 094°15'0 0.0
2018-Feb-19 10:30N 29°40' W 094°15'0 0.3
2018-Feb-19 10:00N 29°40' W 094°14'0 0.0
2018-Feb-19 09:30N 29°40' W 094°14'0 0.0
2018-Feb-19 09:00N 29°40' W 094°14'0 0.0
2018-Feb-19 08:30N 29°40' W 094°14'0 0.0
2018-Feb-19 08:00N 29°40' W 094°14'0 0.0
2018-Feb-19 07:30N 29°40' W 094°14'0 0.0
2018-Feb-19 07:00N 29°40' W 094°14'0 0.0
2018-Feb-19 06:30N 29°40' W 094°14'0 0.0
2018-Feb-19 05:58N 29°40' W 094°14'0 0.0
2018-Feb-19 05:30N 29°40' W 094°14'0 0.0
2018-Feb-19 05:00N 29°40' W 094°14'0 0.0
2018-Feb-19 04:29N 29°40' W 094°14'0 0.0
2018-Feb-19 04:00N 29°40' W 094°14'0 0.0
2018-Feb-19 03:30N 29°40' W 094°14'0 0.0
2018-Feb-19 03:00N 29°40' W 094°14'0 0.0
2018-Feb-19 02:30N 29°40' W 094°14'0 0.0
2018-Feb-19 02:00N 29°40' W 094°14'0 0.0
2018-Feb-19 01:30N 29°40' W 094°14'0 0.0
2018-Feb-19 01:00N 29°40' W 094°14'0 0.0
2018-Feb-19 00:30N 29°40' W 094°14'0 0.0
2018-Feb-19 00:00N 29°40' W 094°14'0 0.3
2018-Feb-18 23:30N 29°40' W 094°14'1 2.9
2018-Feb-18 23:00N 29°40' W 094°13'2 4.6
2018-Feb-18 22:30N 29°41' W 094°10'3 5.2
2018-Feb-18 22:00N 29°43' W 094°08'3 5.8
2018-Feb-18 21:30N 29°44' W 094°05'3 6.6
2018-Feb-18 21:00N 29°46' W 094°02'3 6.4
2018-Feb-18 20:30N 29°49' W 093°60'3 5.4
2018-Feb-18 20:00N 29°50' W 093°57'4 7.4
2018-Feb-18 19:30N 29°53' W 093°55'4 7.1
2018-Feb-18 19:00N 29°56' W 093°52'3 6.1
2018-Feb-18 18:30N 29°59' W 093°50'4 7.1
2018-Feb-18 18:00N 30°00' W 093°46'1 1.0
2018-Feb-18 17:29N 30°01' W 093°46'2 4.5
2018-Feb-18 17:00N 30°02' W 093°44'2 4.6
2018-Feb-18 16:30N 30°03' W 093°42'3 4.7
2018-Feb-18 15:57N 30°04' W 093°39'2 3.5
2018-Feb-18 15:30N 30°04' W 093°37'2 3.3
2018-Feb-18 14:59N 30°04' W 093°35'1 1.0
2018-Feb-18 14:23N 30°04' W 093°34'0 0.4
2018-Feb-18 13:59N 30°04' W 093°34'0 0.2
2018-Feb-18 13:30N 30°04' W 093°34'0 0.3
2018-Feb-18 13:00N 30°04' W 093°34'0 0.4
2018-Feb-18 12:30N 30°04' W 093°34'0 0.6
2018-Feb-18 12:00N 30°04' W 093°33'1 2.5
2018-Feb-18 11:30N 30°04' W 093°32'2 3.3
2018-Feb-18 11:00N 30°04' W 093°30'1 2.8
2018-Feb-18 10:30N 30°04' W 093°28'2 4.2
2018-Feb-18 10:00N 30°04' W 093°26'2 4.6
2018-Feb-18 09:30N 30°04' W 093°23'2 3.7
2018-Feb-18 09:00N 30°04' W 093°21'1 2.0
2018-Feb-18 08:30N 30°04' W 093°20'0 0.4
2018-Feb-18 08:00N 30°05' W 093°20'1 1.8
2018-Feb-18 07:30N 30°05' W 093°20'1 2.7
2018-Feb-18 07:00N 30°06' W 093°18'2 4.3
2018-Feb-18 06:30N 30°04' W 093°16'1 1.2
2018-Feb-18 06:00N 30°04' W 093°16'1 1.1
2018-Feb-18 05:30N 30°03' W 093°16'0 1.0
2018-Feb-18 05:00N 30°03' W 093°16'0 0.6
2018-Feb-18 04:30N 30°02' W 093°16'0 0.0
2018-Feb-18 04:00N 30°02' W 093°16'0 0.0
2018-Feb-18 03:30N 30°02' W 093°16'0 0.1
2018-Feb-18 03:00N 30°02' W 093°16'0 0.1
2018-Feb-18 02:30N 30°02' W 093°16'2 3.2
2018-Feb-18 02:00N 30°01' W 093°14'2 4.2
2018-Feb-18 01:30N 29°60' W 093°13'2 4.1
2018-Feb-18 01:00N 29°58' W 093°11'2 4.9
2018-Feb-18 00:30N 29°56' W 093°10'42 2.2
2018-Feb-17 05:27N 29°51' W 092°22'1 2.4
2018-Feb-17 04:53N 29°51' W 092°20'2 4.4
2018-Feb-17 04:30N 29°50' W 092°18'1 2.5
2018-Feb-17 04:00N 29°49' W 092°17'2 3.9
2018-Feb-17 03:30N 29°48' W 092°15'2 4.3
2018-Feb-17 03:00N 29°47' W 092°13'2 3.7
2018-Feb-17 02:30N 29°47' W 092°11'0 0.9
2018-Feb-17 02:00N 29°47' W 092°11'2 3.6
2018-Feb-17 01:28N 29°47' W 092°09'2 5.2
2018-Feb-17 01:00N 29°48' W 092°06'67 2.8
2018-Feb-16 01:07N 29°32' W 090°50'1 5.5
2018-Feb-16 01:00N 29°32' W 090°50'3 5.3
2018-Feb-16 00:30N 29°32' W 090°47'2 4.2
2018-Feb-16 00:00N 29°34' W 090°45'2 3.5
2018-Feb-15 23:30N 29°34' W 090°43'2 3.6
2018-Feb-15 23:00N 29°36' W 090°43'1 2.9
2018-Feb-15 22:30N 29°36' W 090°41'2 4.6
2018-Feb-15 22:00N 29°35' W 090°38'2 4.5
2018-Feb-15 21:29N 29°35' W 090°36'2 3.3
2018-Feb-15 21:00N 29°34' W 090°34'  

Dump ship's entire track history